sensor_id;sensor_type;location;lat;lon;timestamp;pressure;altitude;pressure_sealevel;temperature
20092;BMP180;10205;49.678;6.560;2023-07-13T00:01:59;99992.00;;;27.70
20092;BMP180;10205;49.678;6.560;2023-07-13T00:04:27;99993.00;;;27.60
20092;BMP180;10205;49.678;6.560;2023-07-13T00:06:54;99984.00;;;27.60
20092;BMP180;10205;49.678;6.560;2023-07-13T00:09:22;99983.00;;;27.60
20092;BMP180;10205;49.678;6.560;2023-07-13T00:11:54;99981.00;;;27.50
20092;BMP180;10205;49.678;6.560;2023-07-13T00:14:25;99981.00;;;27.40
20092;BMP180;10205;49.678;6.560;2023-07-13T00:16:53;99982.00;;;27.40
20092;BMP180;10205;49.678;6.560;2023-07-13T00:19:20;99971.00;;;27.30
20092;BMP180;10205;49.678;6.560;2023-07-13T00:21:47;99979.00;;;27.30
20092;BMP180;10205;49.678;6.560;2023-07-13T00:24:17;99976.00;;;27.30
20092;BMP180;10205;49.678;6.560;2023-07-13T00:26:49;99969.00;;;27.20
20092;BMP180;10205;49.678;6.560;2023-07-13T00:29:17;99975.00;;;27.20
20092;BMP180;10205;49.678;6.560;2023-07-13T00:31:45;99974.00;;;27.10
20092;BMP180;10205;49.678;6.560;2023-07-13T00:34:13;99969.00;;;27.10
20092;BMP180;10205;49.678;6.560;2023-07-13T00:36:40;99972.00;;;27.00
20092;BMP180;10205;49.678;6.560;2023-07-13T00:39:07;99966.00;;;27.00
20092;BMP180;10205;49.678;6.560;2023-07-13T00:41:35;99965.00;;;27.00
20092;BMP180;10205;49.678;6.560;2023-07-13T00:44:03;99964.00;;;26.90
20092;BMP180;10205;49.678;6.560;2023-07-13T00:46:32;99978.00;;;26.90
20092;BMP180;10205;49.678;6.560;2023-07-13T00:49:05;99963.00;;;26.80
20092;BMP180;10205;49.678;6.560;2023-07-13T00:51:40;99973.00;;;26.80
20092;BMP180;10205;49.678;6.560;2023-07-13T00:54:13;99982.00;;;26.70
20092;BMP180;10205;49.678;6.560;2023-07-13T00:56:43;99976.00;;;26.70
20092;BMP180;10205;49.678;6.560;2023-07-13T00:59:15;99973.00;;;26.70
20092;BMP180;10205;49.678;6.560;2023-07-13T01:01:43;99978.00;;;26.60
20092;BMP180;10205;49.678;6.560;2023-07-13T01:04:12;99970.00;;;26.60
20092;BMP180;10205;49.678;6.560;2023-07-13T01:06:41;99976.00;;;26.60
20092;BMP180;10205;49.678;6.560;2023-07-13T01:09:10;99978.00;;;26.50
20092;BMP180;10205;49.678;6.560;2023-07-13T01:11:38;99975.00;;;26.50
20092;BMP180;10205;49.678;6.560;2023-07-13T01:14:06;99984.00;;;26.40
20092;BMP180;10205;49.678;6.560;2023-07-13T01:16:36;99989.00;;;26.40
20092;BMP180;10205;49.678;6.560;2023-07-13T01:19:15;99974.00;;;26.30
20092;BMP180;10205;49.678;6.560;2023-07-13T01:21:51;99984.00;;;26.30
20092;BMP180;10205;49.678;6.560;2023-07-13T01:24:18;99990.00;;;26.20
20092;BMP180;10205;49.678;6.560;2023-07-13T01:26:45;99995.00;;;26.20
20092;BMP180;10205;49.678;6.560;2023-07-13T01:29:13;99994.00;;;26.20
20092;BMP180;10205;49.678;6.560;2023-07-13T01:31:40;99997.00;;;26.10
20092;BMP180;10205;49.678;6.560;2023-07-13T01:34:07;99993.00;;;26.10
20092;BMP180;10205;49.678;6.560;2023-07-13T01:36:35;99989.00;;;26.00
20092;BMP180;10205;49.678;6.560;2023-07-13T01:39:03;99985.00;;;26.00
20092;BMP180;10205;49.678;6.560;2023-07-13T01:41:31;99981.00;;;26.00
20092;BMP180;10205;49.678;6.560;2023-07-13T01:43:58;99990.00;;;25.90
20092;BMP180;10205;49.678;6.560;2023-07-13T01:46:25;99993.00;;;25.90
20092;BMP180;10205;49.678;6.560;2023-07-13T01:48:52;99994.00;;;25.80
20092;BMP180;10205;49.678;6.560;2023-07-13T01:51:20;99994.00;;;25.80
20092;BMP180;10205;49.678;6.560;2023-07-13T01:53:47;99997.00;;;25.80
20092;BMP180;10205;49.678;6.560;2023-07-13T01:56:17;99995.00;;;25.80
20092;BMP180;10205;49.678;6.560;2023-07-13T01:58:45;99998.00;;;25.70
20092;BMP180;10205;49.678;6.560;2023-07-13T02:01:12;100002.00;;;25.70
20092;BMP180;10205;49.678;6.560;2023-07-13T02:03:40;100008.00;;;25.60
20092;BMP180;10205;49.678;6.560;2023-07-13T02:06:07;100011.00;;;25.70
20092;BMP180;10205;49.678;6.560;2023-07-13T02:08:34;99999.00;;;25.60
20092;BMP180;10205;49.678;6.560;2023-07-13T02:11:03;100011.00;;;25.60
20092;BMP180;10205;49.678;6.560;2023-07-13T02:13:32;100008.00;;;25.50
20092;BMP180;10205;49.678;6.560;2023-07-13T02:15:59;100012.00;;;25.50
20092;BMP180;10205;49.678;6.560;2023-07-13T02:18:27;100011.00;;;25.50
20092;BMP180;10205;49.678;6.560;2023-07-13T02:20:54;100011.00;;;25.40
20092;BMP180;10205;49.678;6.560;2023-07-13T02:23:21;100019.00;;;25.40
20092;BMP180;10205;49.678;6.560;2023-07-13T02:25:48;100018.00;;;25.40
20092;BMP180;10205;49.678;6.560;2023-07-13T02:28:16;100020.00;;;25.40
20092;BMP180;10205;49.678;6.560;2023-07-13T02:30:44;100015.00;;;25.40
20092;BMP180;10205;49.678;6.560;2023-07-13T02:33:12;100008.00;;;25.30
20092;BMP180;10205;49.678;6.560;2023-07-13T02:35:39;100006.00;;;25.30
20092;BMP180;10205;49.678;6.560;2023-07-13T02:38:07;100007.00;;;25.30
20092;BMP180;10205;49.678;6.560;2023-07-13T02:40:34;100004.00;;;25.30
20092;BMP180;10205;49.678;6.560;2023-07-13T02:43:03;100009.00;;;25.20
20092;BMP180;10205;49.678;6.560;2023-07-13T02:45:30;100009.00;;;25.20
20092;BMP180;10205;49.678;6.560;2023-07-13T02:47:59;100013.00;;;25.20
20092;BMP180;10205;49.678;6.560;2023-07-13T02:50:26;100012.00;;;25.10
20092;BMP180;10205;49.678;6.560;2023-07-13T02:52:53;100009.00;;;25.10
20092;BMP180;10205;49.678;6.560;2023-07-13T02:55:20;100011.00;;;25.10
20092;BMP180;10205;49.678;6.560;2023-07-13T02:57:48;100003.00;;;25.10
20092;BMP180;10205;49.678;6.560;2023-07-13T03:00:16;100002.00;;;25.10
20092;BMP180;10205;49.678;6.560;2023-07-13T03:02:44;100008.00;;;25.00
20092;BMP180;10205;49.678;6.560;2023-07-13T03:05:13;100013.00;;;25.00
20092;BMP180;10205;49.678;6.560;2023-07-13T03:07:41;100022.00;;;25.00
20092;BMP180;10205;49.678;6.560;2023-07-13T03:10:09;100007.00;;;25.00
20092;BMP180;10205;49.678;6.560;2023-07-13T03:12:36;100019.00;;;25.00
20092;BMP180;10205;49.678;6.560;2023-07-13T03:15:04;100014.00;;;24.90
20092;BMP180;10205;49.678;6.560;2023-07-13T03:17:32;100019.00;;;24.90
20092;BMP180;10205;49.678;6.560;2023-07-13T03:20:12;100026.00;;;24.90
20092;BMP180;10205;49.678;6.560;2023-07-13T03:22:39;100030.00;;;24.80
20092;BMP180;10205;49.678;6.560;2023-07-13T03:25:08;100034.00;;;24.80
20092;BMP180;10205;49.678;6.560;2023-07-13T03:27:36;100028.00;;;24.80
20092;BMP180;10205;49.678;6.560;2023-07-13T03:30:05;100031.00;;;24.80
20092;BMP180;10205;49.678;6.560;2023-07-13T03:32:33;100026.00;;;24.80
20092;BMP180;10205;49.678;6.560;2023-07-13T03:35:00;100036.00;;;24.70
20092;BMP180;10205;49.678;6.560;2023-07-13T03:37:29;100033.00;;;24.70
20092;BMP180;10205;49.678;6.560;2023-07-13T03:39:57;100037.00;;;24.70
20092;BMP180;10205;49.678;6.560;2023-07-13T03:42:24;100040.00;;;24.60
20092;BMP180;10205;49.678;6.560;2023-07-13T03:44:51;100041.00;;;24.60
20092;BMP180;10205;49.678;6.560;2023-07-13T03:47:19;100039.00;;;24.60
20092;BMP180;10205;49.678;6.560;2023-07-13T03:49:46;100042.00;;;24.60
20092;BMP180;10205;49.678;6.560;2023-07-13T03:52:13;100052.00;;;24.60
20092;BMP180;10205;49.678;6.560;2023-07-13T03:54:42;100057.00;;;24.50
20092;BMP180;10205;49.678;6.560;2023-07-13T03:57:09;100056.00;;;24.50
20092;BMP180;10205;49.678;6.560;2023-07-13T03:59:36;100050.00;;;24.50
20092;BMP180;10205;49.678;6.560;2023-07-13T04:02:04;100054.00;;;24.50
20092;BMP180;10205;49.678;6.560;2023-07-13T04:04:31;100052.00;;;24.40
20092;BMP180;10205;49.678;6.560;2023-07-13T04:06:58;100057.00;;;24.40
20092;BMP180;10205;49.678;6.560;2023-07-13T04:09:26;100054.00;;;24.40
20092;BMP180;10205;49.678;6.560;2023-07-13T04:11:54;100059.00;;;24.40
20092;BMP180;10205;49.678;6.560;2023-07-13T04:14:22;100054.00;;;24.30
20092;BMP180;10205;49.678;6.560;2023-07-13T04:16:49;100058.00;;;24.30
20092;BMP180;10205;49.678;6.560;2023-07-13T04:19:16;100070.00;;;24.30
20092;BMP180;10205;49.678;6.560;2023-07-13T04:21:43;100070.00;;;24.20
20092;BMP180;10205;49.678;6.560;2023-07-13T04:24:11;100068.00;;;24.20
20092;BMP180;10205;49.678;6.560;2023-07-13T04:26:39;100068.00;;;24.20
20092;BMP180;10205;49.678;6.560;2023-07-13T04:29:07;100076.00;;;24.20
20092;BMP180;10205;49.678;6.560;2023-07-13T04:31:35;100066.00;;;24.20
20092;BMP180;10205;49.678;6.560;2023-07-13T04:34:02;100077.00;;;24.10
20092;BMP180;10205;49.678;6.560;2023-07-13T04:36:29;100077.00;;;24.10
20092;BMP180;10205;49.678;6.560;2023-07-13T04:38:57;100077.00;;;24.10
20092;BMP180;10205;49.678;6.560;2023-07-13T04:41:24;100079.00;;;24.10
20092;BMP180;10205;49.678;6.560;2023-07-13T04:43:51;100084.00;;;24.00
20092;BMP180;10205;49.678;6.560;2023-07-13T04:46:20;100077.00;;;24.00
20092;BMP180;10205;49.678;6.560;2023-07-13T04:48:49;100080.00;;;24.00
20092;BMP180;10205;49.678;6.560;2023-07-13T04:51:19;100083.00;;;24.00
20092;BMP180;10205;49.678;6.560;2023-07-13T04:53:46;100089.00;;;24.00
20092;BMP180;10205;49.678;6.560;2023-07-13T04:56:13;100089.00;;;23.90
20092;BMP180;10205;49.678;6.560;2023-07-13T04:58:41;100089.00;;;23.90
20092;BMP180;10205;49.678;6.560;2023-07-13T05:01:09;100091.00;;;23.90
20092;BMP180;10205;49.678;6.560;2023-07-13T05:03:38;100093.00;;;23.90
20092;BMP180;10205;49.678;6.560;2023-07-13T05:06:08;100091.00;;;23.90
20092;BMP180;10205;49.678;6.560;2023-07-13T05:08:36;100095.00;;;23.90
20092;BMP180;10205;49.678;6.560;2023-07-13T05:11:05;100099.00;;;23.80
20092;BMP180;10205;49.678;6.560;2023-07-13T05:13:33;100092.00;;;23.80
20092;BMP180;10205;49.678;6.560;2023-07-13T05:16:04;100093.00;;;23.80
20092;BMP180;10205;49.678;6.560;2023-07-13T05:18:32;100090.00;;;23.80
20092;BMP180;10205;49.678;6.560;2023-07-13T05:21:03;100085.00;;;23.80
20092;BMP180;10205;49.678;6.560;2023-07-13T05:23:32;100089.00;;;23.80
20092;BMP180;10205;49.678;6.560;2023-07-13T05:26:00;100088.00;;;23.80
20092;BMP180;10205;49.678;6.560;2023-07-13T05:28:28;100094.00;;;23.80
20092;BMP180;10205;49.678;6.560;2023-07-13T05:30:55;100094.00;;;23.80
20092;BMP180;10205;49.678;6.560;2023-07-13T05:33:23;100094.00;;;23.70
20092;BMP180;10205;49.678;6.560;2023-07-13T05:35:51;100092.00;;;23.80
20092;BMP180;10205;49.678;6.560;2023-07-13T05:38:20;100098.00;;;23.70
20092;BMP180;10205;49.678;6.560;2023-07-13T05:40:50;100093.00;;;23.70
20092;BMP180;10205;49.678;6.560;2023-07-13T05:43:17;100083.00;;;23.70
20092;BMP180;10205;49.678;6.560;2023-07-13T05:45:45;100090.00;;;23.70
20092;BMP180;10205;49.678;6.560;2023-07-13T05:48:12;100095.00;;;23.70
20092;BMP180;10205;49.678;6.560;2023-07-13T05:50:40;100092.00;;;23.70
20092;BMP180;10205;49.678;6.560;2023-07-13T05:53:07;100091.00;;;23.80
20092;BMP180;10205;49.678;6.560;2023-07-13T05:55:41;100090.00;;;23.80
20092;BMP180;10205;49.678;6.560;2023-07-13T05:58:08;100092.00;;;23.80
20092;BMP180;10205;49.678;6.560;2023-07-13T06:00:35;100096.00;;;23.80
20092;BMP180;10205;49.678;6.560;2023-07-13T06:03:03;100095.00;;;23.80
20092;BMP180;10205;49.678;6.560;2023-07-13T06:05:30;100100.00;;;23.80
20092;BMP180;10205;49.678;6.560;2023-07-13T06:07:59;100098.00;;;23.80
20092;BMP180;10205;49.678;6.560;2023-07-13T06:10:26;100095.00;;;23.80
20092;BMP180;10205;49.678;6.560;2023-07-13T06:12:55;100107.00;;;23.80
20092;BMP180;10205;49.678;6.560;2023-07-13T06:15:22;100104.00;;;23.80
20092;BMP180;10205;49.678;6.560;2023-07-13T06:17:50;100102.00;;;23.90
20092;BMP180;10205;49.678;6.560;2023-07-13T06:20:17;100111.00;;;23.90
20092;BMP180;10205;49.678;6.560;2023-07-13T06:22:44;100104.00;;;23.90
20092;BMP180;10205;49.678;6.560;2023-07-13T06:25:12;100110.00;;;23.90
20092;BMP180;10205;49.678;6.560;2023-07-13T06:27:39;100108.00;;;23.90
20092;BMP180;10205;49.678;6.560;2023-07-13T06:30:09;100106.00;;;24.00
20092;BMP180;10205;49.678;6.560;2023-07-13T06:32:37;100115.00;;;24.00
20092;BMP180;10205;49.678;6.560;2023-07-13T06:35:05;100112.00;;;24.00
20092;BMP180;10205;49.678;6.560;2023-07-13T06:37:33;100111.00;;;24.00
20092;BMP180;10205;49.678;6.560;2023-07-13T06:40:00;100111.00;;;24.10
20092;BMP180;10205;49.678;6.560;2023-07-13T06:42:27;100106.00;;;24.10
20092;BMP180;10205;49.678;6.560;2023-07-13T06:44:54;100109.00;;;24.10
20092;BMP180;10205;49.678;6.560;2023-07-13T06:47:23;100114.00;;;24.20
20092;BMP180;10205;49.678;6.560;2023-07-13T06:49:50;100113.00;;;24.20
20092;BMP180;10205;49.678;6.560;2023-07-13T06:52:18;100107.00;;;24.20
20092;BMP180;10205;49.678;6.560;2023-07-13T06:54:45;100117.00;;;24.20
20092;BMP180;10205;49.678;6.560;2023-07-13T06:57:12;100122.00;;;24.30
20092;BMP180;10205;49.678;6.560;2023-07-13T06:59:40;100121.00;;;24.30
20092;BMP180;10205;49.678;6.560;2023-07-13T07:02:10;100126.00;;;24.40
20092;BMP180;10205;49.678;6.560;2023-07-13T07:04:38;100128.00;;;24.40
20092;BMP180;10205;49.678;6.560;2023-07-13T07:07:06;100124.00;;;24.40
20092;BMP180;10205;49.678;6.560;2023-07-13T07:09:33;100121.00;;;24.50
20092;BMP180;10205;49.678;6.560;2023-07-13T07:12:02;100119.00;;;24.50
20092;BMP180;10205;49.678;6.560;2023-07-13T07:14:30;100118.00;;;24.60
20092;BMP180;10205;49.678;6.560;2023-07-13T07:16:57;100118.00;;;24.60
20092;BMP180;10205;49.678;6.560;2023-07-13T07:19:25;100126.00;;;24.60
20092;BMP180;10205;49.678;6.560;2023-07-13T07:21:56;100133.00;;;24.70
20092;BMP180;10205;49.678;6.560;2023-07-13T07:24:23;100139.00;;;24.70
20092;BMP180;10205;49.678;6.560;2023-07-13T07:26:51;100125.00;;;24.70
20092;BMP180;10205;49.678;6.560;2023-07-13T07:29:18;100123.00;;;24.80
20092;BMP180;10205;49.678;6.560;2023-07-13T07:31:45;100119.00;;;24.90
20092;BMP180;10205;49.678;6.560;2023-07-13T07:34:13;100127.00;;;24.90
20092;BMP180;10205;49.678;6.560;2023-07-13T07:36:40;100128.00;;;25.00
20092;BMP180;10205;49.678;6.560;2023-07-13T07:39:08;100130.00;;;25.00
20092;BMP180;10205;49.678;6.560;2023-07-13T07:41:36;100134.00;;;25.10
20092;BMP180;10205;49.678;6.560;2023-07-13T07:44:03;100131.00;;;25.20
20092;BMP180;10205;49.678;6.560;2023-07-13T07:46:33;100125.00;;;25.20
20092;BMP180;10205;49.678;6.560;2023-07-13T07:49:00;100128.00;;;25.30
20092;BMP180;10205;49.678;6.560;2023-07-13T07:51:27;100135.00;;;25.40
20092;BMP180;10205;49.678;6.560;2023-07-13T07:53:55;100139.00;;;25.40
20092;BMP180;10205;49.678;6.560;2023-07-13T07:56:23;100138.00;;;25.50
20092;BMP180;10205;49.678;6.560;2023-07-13T07:58:51;100135.00;;;25.50
20092;BMP180;10205;49.678;6.560;2023-07-13T08:01:18;100127.00;;;25.60
20092;BMP180;10205;49.678;6.560;2023-07-13T08:03:45;100127.00;;;25.70
20092;BMP180;10205;49.678;6.560;2023-07-13T08:06:12;100132.00;;;25.70
20092;BMP180;10205;49.678;6.560;2023-07-13T08:08:41;100137.00;;;25.80
20092;BMP180;10205;49.678;6.560;2023-07-13T08:11:09;100131.00;;;25.90
20092;BMP180;10205;49.678;6.560;2023-07-13T08:13:38;100137.00;;;26.00
20092;BMP180;10205;49.678;6.560;2023-07-13T08:16:06;100135.00;;;26.00
20092;BMP180;10205;49.678;6.560;2023-07-13T08:18:34;100134.00;;;26.10
20092;BMP180;10205;49.678;6.560;2023-07-13T08:21:04;100127.00;;;26.10
20092;BMP180;10205;49.678;6.560;2023-07-13T08:23:31;100132.00;;;26.20
20092;BMP180;10205;49.678;6.560;2023-07-13T08:25:59;100125.00;;;26.20
20092;BMP180;10205;49.678;6.560;2023-07-13T08:28:28;100127.00;;;26.20
20092;BMP180;10205;49.678;6.560;2023-07-13T08:31:01;100132.00;;;26.30
20092;BMP180;10205;49.678;6.560;2023-07-13T08:33:28;100130.00;;;26.30
20092;BMP180;10205;49.678;6.560;2023-07-13T08:35:56;100123.00;;;26.40
20092;BMP180;10205;49.678;6.560;2023-07-13T08:38:23;100128.00;;;26.50
20092;BMP180;10205;49.678;6.560;2023-07-13T08:40:54;100114.00;;;26.50
20092;BMP180;10205;49.678;6.560;2023-07-13T08:43:28;100124.00;;;26.60
20092;BMP180;10205;49.678;6.560;2023-07-13T08:46:07;100119.00;;;26.70
20092;BMP180;10205;49.678;6.560;2023-07-13T08:48:43;100122.00;;;26.70
20092;BMP180;10205;49.678;6.560;2023-07-13T08:51:29;100132.00;;;26.80
20092;BMP180;10205;49.678;6.560;2023-07-13T08:54:02;100127.00;;;26.90
20092;BMP180;10205;49.678;6.560;2023-07-13T08:56:32;100122.00;;;26.90
20092;BMP180;10205;49.678;6.560;2023-07-13T08:59:06;100121.00;;;27.00
20092;BMP180;10205;49.678;6.560;2023-07-13T09:01:58;100126.00;;;27.10
20092;BMP180;10205;49.678;6.560;2023-07-13T09:04:33;100120.00;;;27.20
20092;BMP180;10205;49.678;6.560;2023-07-13T09:07:14;100124.00;;;27.20
20092;BMP180;10205;49.678;6.560;2023-07-13T09:09:58;100115.00;;;27.30
20092;BMP180;10205;49.678;6.560;2023-07-13T09:12:43;100118.00;;;27.40
20092;BMP180;10205;49.678;6.560;2023-07-13T09:15:26;100117.00;;;27.50
20092;BMP180;10205;49.678;6.560;2023-07-13T09:18:04;100119.00;;;27.60
20092;BMP180;10205;49.678;6.560;2023-07-13T09:20:35;100123.00;;;27.60
20092;BMP180;10205;49.678;6.560;2023-07-13T09:23:12;100114.00;;;27.70
20092;BMP180;10205;49.678;6.560;2023-07-13T09:25:47;100122.00;;;27.80
20092;BMP180;10205;49.678;6.560;2023-07-13T09:28:22;100118.00;;;27.80
20092;BMP180;10205;49.678;6.560;2023-07-13T09:30:56;100128.00;;;27.80
20092;BMP180;10205;49.678;6.560;2023-07-13T09:33:26;100128.00;;;27.90
20092;BMP180;10205;49.678;6.560;2023-07-13T09:35:55;100134.00;;;28.00
20092;BMP180;10205;49.678;6.560;2023-07-13T09:38:27;100111.00;;;28.00
20092;BMP180;10205;49.678;6.560;2023-07-13T09:41:17;100112.00;;;28.10
20092;BMP180;10205;49.678;6.560;2023-07-13T09:44:09;100121.00;;;28.20
20092;BMP180;10205;49.678;6.560;2023-07-13T09:46:39;100124.00;;;28.30
20092;BMP180;10205;49.678;6.560;2023-07-13T09:49:11;100126.00;;;28.40
20092;BMP180;10205;49.678;6.560;2023-07-13T09:51:40;100113.00;;;28.40
20092;BMP180;10205;49.678;6.560;2023-07-13T09:54:20;100128.00;;;28.60
20092;BMP180;10205;49.678;6.560;2023-07-13T09:56:54;100129.00;;;28.60
20092;BMP180;10205;49.678;6.560;2023-07-13T09:59:26;100130.00;;;28.70
20092;BMP180;10205;49.678;6.560;2023-07-13T10:01:54;100135.00;;;28.80
20092;BMP180;10205;49.678;6.560;2023-07-13T10:04:29;100132.00;;;28.80
20092;BMP180;10205;49.678;6.560;2023-07-13T10:07:06;100122.00;;;28.90
20092;BMP180;10205;49.678;6.560;2023-07-13T10:09:34;100129.00;;;29.00
20092;BMP180;10205;49.678;6.560;2023-07-13T10:12:01;100132.00;;;29.00
20092;BMP180;10205;49.678;6.560;2023-07-13T10:14:29;100140.00;;;29.10
20092;BMP180;10205;49.678;6.560;2023-07-13T10:17:00;100122.00;;;29.10
20092;BMP180;10205;49.678;6.560;2023-07-13T10:19:34;100135.00;;;29.20
20092;BMP180;10205;49.678;6.560;2023-07-13T10:22:25;100123.00;;;29.20
20092;BMP180;10205;49.678;6.560;2023-07-13T10:24:54;100128.00;;;29.20
20092;BMP180;10205;49.678;6.560;2023-07-13T10:27:31;100122.00;;;29.30
20092;BMP180;10205;49.678;6.560;2023-07-13T10:30:09;100139.00;;;29.40
20092;BMP180;10205;49.678;6.560;2023-07-13T10:32:39;100149.00;;;29.40
20092;BMP180;10205;49.678;6.560;2023-07-13T10:35:12;100147.00;;;29.50
20092;BMP180;10205;49.678;6.560;2023-07-13T10:37:45;100133.00;;;29.50
20092;BMP180;10205;49.678;6.560;2023-07-13T10:40:20;100149.00;;;29.60
20092;BMP180;10205;49.678;6.560;2023-07-13T10:42:54;100134.00;;;29.60
20092;BMP180;10205;49.678;6.560;2023-07-13T10:45:24;100138.00;;;29.70
20092;BMP180;10205;49.678;6.560;2023-07-13T10:47:55;100138.00;;;29.70
20092;BMP180;10205;49.678;6.560;2023-07-13T10:50:29;100134.00;;;29.80
20092;BMP180;10205;49.678;6.560;2023-07-13T10:53:03;100138.00;;;29.90
20092;BMP180;10205;49.678;6.560;2023-07-13T10:55:33;100138.00;;;29.90
20092;BMP180;10205;49.678;6.560;2023-07-13T10:58:03;100139.00;;;30.00
20092;BMP180;10205;49.678;6.560;2023-07-13T11:00:47;100140.00;;;30.00
20092;BMP180;10205;49.678;6.560;2023-07-13T11:03:20;100148.00;;;30.10
20092;BMP180;10205;49.678;6.560;2023-07-13T11:06:04;100147.00;;;30.10
20092;BMP180;10205;49.678;6.560;2023-07-13T11:08:37;100150.00;;;30.20
20092;BMP180;10205;49.678;6.560;2023-07-13T11:11:35;100151.00;;;30.20
20092;BMP180;10205;49.678;6.560;2023-07-13T11:14:26;100147.00;;;30.30
20092;BMP180;10205;49.678;6.560;2023-07-13T11:16:54;100161.00;;;30.30
20092;BMP180;10205;49.678;6.560;2023-07-13T11:19:45;100160.00;;;30.40
20092;BMP180;10205;49.678;6.560;2023-07-13T11:22:26;100159.00;;;30.40
20092;BMP180;10205;49.678;6.560;2023-07-13T11:25:27;100161.00;;;30.40
20092;BMP180;10205;49.678;6.560;2023-07-13T11:28:17;100158.00;;;30.50
20092;BMP180;10205;49.678;6.560;2023-07-13T11:30:48;100167.00;;;30.50
20092;BMP180;10205;49.678;6.560;2023-07-13T11:33:20;100153.00;;;30.50
20092;BMP180;10205;49.678;6.560;2023-07-13T11:35:59;100163.00;;;30.60
20092;BMP180;10205;49.678;6.560;2023-07-13T11:38:36;100162.00;;;30.60
20092;BMP180;10205;49.678;6.560;2023-07-13T11:41:10;100165.00;;;30.60
20092;BMP180;10205;49.678;6.560;2023-07-13T11:43:41;100176.00;;;30.70
20092;BMP180;10205;49.678;6.560;2023-07-13T11:46:17;100175.00;;;30.70
20092;BMP180;10205;49.678;6.560;2023-07-13T11:48:48;100174.00;;;30.70
20092;BMP180;10205;49.678;6.560;2023-07-13T11:51:22;100176.00;;;30.80
20092;BMP180;10205;49.678;6.560;2023-07-13T11:53:54;100163.00;;;30.80
20092;BMP180;10205;49.678;6.560;2023-07-13T11:56:23;100161.00;;;30.80
20092;BMP180;10205;49.678;6.560;2023-07-13T11:58:55;100170.00;;;30.90
20092;BMP180;10205;49.678;6.560;2023-07-13T12:01:26;100175.00;;;30.90
20092;BMP180;10205;49.678;6.560;2023-07-13T12:03:59;100161.00;;;30.90
20092;BMP180;10205;49.678;6.560;2023-07-13T12:06:29;100160.00;;;30.90
20092;BMP180;10205;49.678;6.560;2023-07-13T12:09:00;100164.00;;;30.90
20092;BMP180;10205;49.678;6.560;2023-07-13T12:11:30;100168.00;;;30.90
20092;BMP180;10205;49.678;6.560;2023-07-13T12:13:59;100173.00;;;30.90
20092;BMP180;10205;49.678;6.560;2023-07-13T12:16:31;100174.00;;;31.00
20092;BMP180;10205;49.678;6.560;2023-07-13T12:19:01;100182.00;;;31.00
20092;BMP180;10205;49.678;6.560;2023-07-13T12:21:33;100184.00;;;31.00
20092;BMP180;10205;49.678;6.560;2023-07-13T12:24:04;100167.00;;;31.00
20092;BMP180;10205;49.678;6.560;2023-07-13T12:26:32;100169.00;;;31.00
20092;BMP180;10205;49.678;6.560;2023-07-13T12:29:04;100166.00;;;31.00
20092;BMP180;10205;49.678;6.560;2023-07-13T12:31:37;100172.00;;;31.10
20092;BMP180;10205;49.678;6.560;2023-07-13T12:34:10;100164.00;;;31.10
20092;BMP180;10205;49.678;6.560;2023-07-13T12:36:41;100170.00;;;31.10
20092;BMP180;10205;49.678;6.560;2023-07-13T12:39:18;100182.00;;;31.10
20092;BMP180;10205;49.678;6.560;2023-07-13T12:41:48;100170.00;;;31.10
20092;BMP180;10205;49.678;6.560;2023-07-13T12:44:19;100165.00;;;31.10
20092;BMP180;10205;49.678;6.560;2023-07-13T12:47:02;100176.00;;;31.10
20092;BMP180;10205;49.678;6.560;2023-07-13T12:49:33;100179.00;;;31.10
20092;BMP180;10205;49.678;6.560;2023-07-13T12:52:04;100170.00;;;31.10
20092;BMP180;10205;49.678;6.560;2023-07-13T12:54:40;100177.00;;;31.10
20092;BMP180;10205;49.678;6.560;2023-07-13T12:57:16;100164.00;;;31.10
20092;BMP180;10205;49.678;6.560;2023-07-13T12:59:44;100171.00;;;31.10
20092;BMP180;10205;49.678;6.560;2023-07-13T13:02:31;100169.00;;;31.10
20092;BMP180;10205;49.678;6.560;2023-07-13T13:05:01;100172.00;;;31.20
20092;BMP180;10205;49.678;6.560;2023-07-13T13:07:30;100179.00;;;31.20
20092;BMP180;10205;49.678;6.560;2023-07-13T13:10:00;100182.00;;;31.20
20092;BMP180;10205;49.678;6.560;2023-07-13T13:12:27;100185.00;;;31.10
20092;BMP180;10205;49.678;6.560;2023-07-13T13:14:54;100188.00;;;31.10
20092;BMP180;10205;49.678;6.560;2023-07-13T13:17:30;100177.00;;;31.10
20092;BMP180;10205;49.678;6.560;2023-07-13T13:19:58;100186.00;;;31.10
20092;BMP180;10205;49.678;6.560;2023-07-13T13:22:26;100188.00;;;31.10
20092;BMP180;10205;49.678;6.560;2023-07-13T13:24:53;100194.00;;;31.10
20092;BMP180;10205;49.678;6.560;2023-07-13T13:27:23;100202.00;;;31.10
20092;BMP180;10205;49.678;6.560;2023-07-13T13:29:51;100201.00;;;31.20
20092;BMP180;10205;49.678;6.560;2023-07-13T13:32:19;100197.00;;;31.20
20092;BMP180;10205;49.678;6.560;2023-07-13T13:34:46;100199.00;;;31.10
20092;BMP180;10205;49.678;6.560;2023-07-13T13:37:19;100204.00;;;31.10
20092;BMP180;10205;49.678;6.560;2023-07-13T13:39:48;100200.00;;;31.10
20092;BMP180;10205;49.678;6.560;2023-07-13T13:42:17;100204.00;;;31.10
20092;BMP180;10205;49.678;6.560;2023-07-13T13:44:46;100207.00;;;31.10
20092;BMP180;10205;49.678;6.560;2023-07-13T13:47:29;100200.00;;;31.10
20092;BMP180;10205;49.678;6.560;2023-07-13T13:49:57;100189.00;;;31.10
20092;BMP180;10205;49.678;6.560;2023-07-13T13:52:26;100195.00;;;31.10
20092;BMP180;10205;49.678;6.560;2023-07-13T13:54:53;100203.00;;;31.10
20092;BMP180;10205;49.678;6.560;2023-07-13T13:57:23;100200.00;;;31.10
20092;BMP180;10205;49.678;6.560;2023-07-13T13:59:53;100193.00;;;31.10
20092;BMP180;10205;49.678;6.560;2023-07-13T14:02:26;100189.00;;;31.20
20092;BMP180;10205;49.678;6.560;2023-07-13T14:04:58;100192.00;;;31.20
20092;BMP180;10205;49.678;6.560;2023-07-13T14:07:26;100188.00;;;31.20
20092;BMP180;10205;49.678;6.560;2023-07-13T14:09:56;100185.00;;;31.20
20092;BMP180;10205;49.678;6.560;2023-07-13T14:12:23;100182.00;;;31.20
20092;BMP180;10205;49.678;6.560;2023-07-13T14:14:53;100178.00;;;31.20
20092;BMP180;10205;49.678;6.560;2023-07-13T14:17:24;100187.00;;;31.20